createdAt,value
2022-08-24T00:00:26.061Z,9.17
2022-08-24T00:02:53.188Z,9.10
2022-08-24T00:05:23.557Z,8.47
2022-08-24T00:07:51.139Z,8.20
2022-08-24T00:10:21.172Z,9.07
2022-08-24T00:12:50.065Z,8.73
2022-08-24T00:15:17.300Z,8.30
2022-08-24T00:17:44.879Z,8.93
2022-08-24T00:20:12.933Z,8.70
2022-08-24T00:22:41.171Z,8.77
2022-08-24T00:25:10.564Z,8.33
2022-08-24T00:27:38.578Z,8.33
2022-08-24T00:30:11.997Z,8.67
2022-08-24T00:32:38.921Z,8.03
2022-08-24T00:35:06.833Z,7.80
2022-08-24T00:37:34.509Z,8.13
2022-08-24T00:40:01.646Z,9.23
2022-08-24T00:42:28.617Z,7.13
2022-08-24T00:44:55.593Z,8.03
2022-08-24T00:47:33.300Z,8.77
2022-08-24T00:50:04.899Z,9.13
2022-08-24T00:52:40.679Z,8.03
2022-08-24T00:55:15.816Z,8.17
2022-08-24T00:57:46.889Z,7.70
2022-08-24T01:00:24.518Z,7.47
2022-08-24T01:02:55.453Z,7.33
2022-08-24T01:05:22.461Z,7.40
2022-08-24T01:07:50.714Z,8.67
2022-08-24T01:10:22.998Z,7.87
2022-08-24T01:13:00.745Z,8.07
2022-08-24T01:15:35.440Z,7.67
2022-08-24T01:18:22.636Z,7.57
2022-08-24T01:20:59.821Z,7.30
2022-08-24T01:23:43.123Z,7.83
2022-08-24T01:26:15.632Z,7.40
2022-08-24T01:28:45.899Z,7.13
2022-08-24T01:31:13.969Z,7.03
2022-08-24T01:33:40.846Z,8.30
2022-08-24T01:36:42.564Z,7.80
2022-08-24T01:39:12.679Z,8.13
2022-08-24T01:41:40.590Z,7.33
2022-08-24T01:44:07.606Z,8.03
2022-08-24T01:46:34.500Z,8.53
2022-08-24T01:49:02.073Z,8.10
2022-08-24T01:51:31.017Z,7.93
2022-08-24T01:54:02.545Z,7.40
2022-08-24T01:56:31.115Z,7.40
2022-08-24T01:59:00.569Z,7.60
2022-08-24T02:01:32.352Z,7.10
2022-08-24T02:04:04.264Z,7.33
2022-08-24T02:06:33.002Z,6.67
2022-08-24T02:09:00.244Z,7.00
2022-08-24T02:11:28.276Z,7.37
2022-08-24T02:13:55.262Z,6.67
2022-08-24T02:16:24.184Z,6.70
2022-08-24T02:18:51.310Z,6.70
2022-08-24T02:21:18.242Z,6.43
2022-08-24T02:23:47.221Z,6.77
2022-08-24T02:26:14.359Z,7.07
2022-08-24T02:28:41.952Z,7.43
2022-08-24T02:31:11.810Z,7.57
2022-08-24T02:33:39.497Z,7.43
2022-08-24T02:36:25.578Z,7.57
2022-08-24T02:38:55.938Z,7.03
2022-08-24T02:41:25.198Z,7.43
2022-08-24T02:43:55.232Z,7.20
2022-08-24T02:46:25.736Z,6.77
2022-08-24T02:48:58.102Z,6.80
2022-08-24T02:51:44.959Z,5.93
2022-08-24T02:54:19.474Z,5.90
2022-08-24T02:56:48.400Z,4.77
2022-08-24T02:59:16.849Z,5.00
2022-08-24T03:01:45.040Z,4.63
2022-08-24T03:04:14.194Z,4.63
2022-08-24T03:06:41.543Z,5.57
2022-08-24T03:09:09.020Z,4.70
2022-08-24T03:11:37.045Z,5.57
2022-08-24T03:14:04.308Z,5.37
2022-08-24T03:16:31.802Z,4.80
2022-08-24T03:18:59.776Z,5.13
2022-08-24T03:21:28.466Z,4.70
2022-08-24T03:23:56.364Z,5.70
2022-08-24T03:26:23.934Z,5.63
2022-08-24T03:28:52.656Z,5.40
2022-08-24T03:31:20.208Z,5.37
2022-08-24T03:33:49.074Z,5.60
2022-08-24T03:36:17.298Z,6.60
2022-08-24T03:38:44.493Z,7.10
2022-08-24T03:41:11.950Z,6.80
2022-08-24T03:43:47.142Z,6.30
2022-08-24T03:46:25.123Z,5.93
2022-08-24T03:48:54.544Z,5.93
2022-08-24T03:51:25.639Z,6.80
2022-08-24T03:53:54.505Z,7.03
2022-08-24T03:56:24.659Z,6.93
2022-08-24T03:58:52.616Z,6.37
2022-08-24T04:01:19.976Z,6.63
2022-08-24T04:03:49.137Z,6.63
2022-08-24T04:06:18.155Z,6.23
2022-08-24T04:08:45.565Z,6.37
2022-08-24T04:11:23.251Z,6.30
2022-08-24T04:13:52.662Z,6.20
2022-08-24T04:16:21.238Z,6.10
2022-08-24T04:18:54.090Z,6.77
2022-08-24T04:21:32.897Z,6.70
2022-08-24T04:24:08.795Z,7.47
2022-08-24T04:26:45.115Z,7.40
2022-08-24T04:29:17.638Z,8.07
2022-08-24T04:31:53.560Z,8.17
2022-08-24T04:34:21.636Z,8.00
2022-08-24T04:36:49.395Z,8.57
2022-08-24T04:39:16.580Z,7.97
2022-08-24T04:41:46.519Z,8.60
2022-08-24T04:44:15.337Z,7.40
2022-08-24T04:46:42.779Z,8.57
2022-08-24T04:49:10.290Z,8.37
2022-08-24T04:51:38.621Z,8.30
2022-08-24T04:54:08.341Z,9.23
2022-08-24T04:56:36.502Z,9.97
2022-08-24T04:59:05.623Z,9.97
2022-08-24T05:01:33.830Z,11.13
2022-08-24T05:04:04.352Z,11.73
2022-08-24T05:06:32.773Z,11.67
2022-08-24T05:09:00.693Z,11.83
2022-08-24T05:11:29.072Z,12.40
2022-08-24T05:13:57.187Z,12.53
2022-08-24T05:16:26.883Z,13.17
2022-08-24T05:18:56.690Z,12.40
2022-08-24T05:21:25.162Z,13.43
2022-08-24T05:23:54.933Z,12.20
2022-08-24T05:26:26.366Z,12.43
2022-08-24T05:28:56.079Z,11.80
2022-08-24T05:31:27.782Z,12.93
2022-08-24T05:33:59.956Z,13.50
2022-08-24T05:36:32.849Z,12.30
2022-08-24T05:39:02.392Z,12.03
2022-08-24T05:41:30.615Z,12.80
2022-08-24T05:44:07.295Z,13.67
2022-08-24T05:46:35.515Z,13.60
2022-08-24T05:49:02.758Z,12.00
2022-08-24T05:51:31.785Z,12.93
2022-08-24T05:54:05.059Z,13.07
2022-08-24T05:56:52.091Z,13.37
2022-08-24T05:59:19.818Z,13.63
2022-08-24T06:01:47.741Z,13.40
2022-08-24T06:04:15.006Z,13.27
2022-08-24T06:06:43.042Z,13.23
2022-08-24T06:09:11.180Z,13.83
2022-08-24T06:11:40.619Z,12.93
2022-08-24T06:14:12.156Z,13.57
2022-08-24T06:16:50.323Z,13.30
2022-08-24T06:19:19.295Z,13.70
2022-08-24T06:21:50.790Z,12.87
2022-08-24T06:24:41.272Z,12.50
2022-08-24T06:27:23.754Z,11.73
2022-08-24T06:29:57.998Z,12.30
2022-08-24T06:32:48.008Z,12.13
2022-08-24T06:35:28.875Z,12.57
2022-08-24T06:37:57.469Z,12.83
2022-08-24T06:40:25.998Z,12.33
2022-08-24T06:42:54.166Z,14.23
2022-08-24T06:45:47.732Z,11.80
2022-08-24T06:48:18.373Z,12.33
2022-08-24T06:50:47.513Z,12.17
2022-08-24T06:53:15.190Z,12.83
2022-08-24T06:55:57.601Z,13.23
2022-08-24T06:58:27.538Z,11.47
2022-08-24T07:00:56.549Z,11.57
2022-08-24T07:03:25.267Z,12.20
2022-08-24T07:06:02.663Z,11.37
2022-08-24T07:08:43.893Z,12.37
2022-08-24T07:11:17.995Z,10.80
2022-08-24T07:13:49.849Z,10.07
2022-08-24T07:16:18.756Z,9.40
2022-08-24T07:18:51.669Z,9.57
2022-08-24T07:21:21.063Z,7.40
2022-08-24T07:23:54.338Z,8.90
2022-08-24T07:26:23.240Z,8.67
2022-08-24T07:28:56.270Z,8.10
2022-08-24T07:31:23.959Z,7.57
2022-08-24T07:33:59.704Z,9.63
2022-08-24T07:36:28.455Z,7.97
2022-08-24T07:38:57.415Z,8.00
2022-08-24T07:41:43.675Z,8.80
2022-08-24T07:44:16.488Z,9.13
2022-08-24T07:46:45.306Z,9.80
2022-08-24T07:49:31.539Z,8.57
2022-08-24T07:52:03.400Z,9.10
2022-08-24T07:54:30.348Z,8.77
2022-08-24T07:57:00.356Z,7.47
2022-08-24T07:59:27.749Z,7.40
2022-08-24T08:01:55.926Z,7.53
2022-08-24T08:04:25.183Z,7.87
2022-08-24T08:06:53.725Z,8.23
2022-08-24T08:09:21.260Z,7.27
2022-08-24T08:11:49.412Z,7.63
2022-08-24T08:14:16.385Z,6.20
2022-08-24T08:16:43.718Z,5.83
2022-08-24T08:19:11.281Z,6.67
2022-08-24T08:22:03.273Z,7.40
2022-08-24T08:24:34.407Z,6.70
2022-08-24T08:27:02.948Z,7.40
2022-08-24T08:29:39.620Z,6.33
2022-08-24T08:32:09.345Z,7.20
2022-08-24T08:34:36.623Z,6.70
2022-08-24T08:37:04.175Z,6.37
2022-08-24T08:39:31.313Z,7.97
2022-08-24T08:42:14.490Z,7.07
2022-08-24T08:44:48.229Z,6.70
2022-08-24T08:47:45.245Z,6.77
2022-08-24T08:50:18.877Z,6.00
2022-08-24T08:53:15.893Z,6.87
2022-08-24T08:56:02.614Z,6.77
2022-08-24T08:58:44.069Z,7.33
2022-08-24T09:01:24.562Z,6.03
2022-08-24T09:04:06.834Z,6.60
2022-08-24T09:06:57.277Z,5.53
2022-08-24T09:09:45.067Z,6.33
2022-08-24T09:12:30.737Z,5.97
2022-08-24T09:15:23.373Z,7.00
2022-08-24T09:18:18.439Z,5.00
2022-08-24T09:20:58.061Z,5.40
2022-08-24T09:23:40.144Z,6.37
2022-08-24T09:26:18.985Z,5.47
2022-08-24T09:29:05.671Z,4.67
2022-08-24T09:34:12.800Z,5.30
2022-08-24T09:36:53.323Z,4.97
2022-08-24T09:39:52.725Z,4.47
2022-08-24T09:42:38.653Z,4.20
2022-08-24T09:45:05.580Z,5.50
2022-08-24T09:47:50.605Z,30.63
2022-08-24T09:50:43.432Z,6.50
2022-08-24T09:53:31.719Z,4.23
2022-08-24T09:56:10.281Z,5.13
2022-08-24T09:58:50.470Z,4.60
2022-08-24T10:01:47.791Z,4.40
2022-08-24T10:04:53.556Z,4.23
2022-08-24T10:07:37.083Z,3.63
2022-08-24T10:10:28.119Z,4.00
2022-08-24T10:13:08.140Z,5.23
2022-08-24T10:15:47.108Z,4.20
2022-08-24T10:18:22.785Z,3.77
2022-08-24T10:21:01.949Z,3.43
2022-08-24T10:23:50.144Z,2.70
2022-08-24T10:26:36.961Z,3.07
2022-08-24T10:29:31.726Z,2.90
2022-08-24T10:32:19.861Z,3.00
2022-08-24T10:35:10.389Z,2.63
2022-08-24T10:38:23.188Z,2.90
2022-08-24T10:41:08.564Z,2.87
2022-08-24T10:43:57.147Z,2.83
2022-08-24T10:46:44.474Z,2.87
2022-08-24T10:49:32.288Z,2.93
2022-08-24T10:52:11.278Z,2.40
2022-08-24T10:54:38.582Z,2.53
2022-08-24T10:57:15.760Z,4.77
2022-08-24T10:59:48.747Z,2.40
2022-08-24T11:02:37.265Z,1.60
2022-08-24T11:05:14.101Z,2.80
2022-08-24T11:07:59.111Z,2.50
2022-08-24T11:10:32.035Z,2.70
2022-08-24T11:13:17.587Z,2.60
2022-08-24T11:15:58.220Z,2.50
2022-08-24T11:18:26.862Z,2.10
2022-08-24T11:20:55.602Z,1.97
2022-08-24T11:23:31.019Z,1.97
2022-08-24T11:26:12.993Z,2.90
2022-08-24T11:28:45.549Z,2.43
2022-08-24T11:31:29.115Z,2.87
2022-08-24T11:34:05.836Z,2.90
2022-08-24T11:36:36.194Z,2.30
2022-08-24T11:39:26.107Z,1.83
2022-08-24T11:42:03.842Z,32.87
2022-08-24T11:45:20.080Z,5.17
2022-08-24T11:48:07.324Z,1.80
2022-08-24T11:50:48.687Z,1.33
2022-08-24T11:53:22.136Z,1.20
2022-08-24T11:56:01.537Z,1.43
2022-08-24T11:58:40.990Z,1.40
2022-08-24T12:01:44.576Z,1.40
2022-08-24T12:04:22.493Z,0.90
2022-08-24T12:06:56.077Z,1.13
2022-08-24T12:09:48.561Z,0.70
2022-08-24T12:12:24.150Z,1.20
2022-08-24T12:15:01.949Z,0.80
2022-08-24T12:17:42.794Z,0.80
2022-08-24T12:20:18.752Z,0.70
2022-08-24T12:22:45.832Z,0.60
2022-08-24T12:25:32.162Z,0.50
2022-08-24T12:27:59.479Z,0.80
2022-08-24T12:30:27.750Z,0.50
2022-08-24T12:33:10.889Z,0.53
2022-08-24T12:35:54.235Z,0.70
2022-08-24T12:38:38.570Z,0.53
2022-08-24T12:41:19.258Z,0.50
2022-08-24T12:43:53.934Z,0.70
2022-08-24T12:46:23.691Z,0.80
2022-08-24T12:49:02.251Z,0.60
2022-08-24T12:51:53.208Z,0.50
2022-08-24T12:54:40.225Z,0.40
2022-08-24T12:57:25.918Z,0.50
2022-08-24T12:59:57.114Z,0.20
2022-08-24T13:02:24.284Z,0.50
2022-08-24T13:04:51.205Z,0.53
2022-08-24T13:07:21.184Z,0.60
2022-08-24T13:09:57.098Z,0.37
2022-08-24T13:12:30.512Z,0.60
2022-08-24T13:15:20.249Z,0.30
2022-08-24T13:17:48.436Z,60.00
2022-08-24T13:20:50.236Z,16.00
2022-08-24T13:23:20.435Z,0.90
2022-08-24T13:25:47.457Z,0.67
2022-08-24T13:28:20.887Z,0.70
2022-08-24T13:30:53.939Z,0.73
2022-08-24T13:33:43.123Z,0.70
2022-08-24T13:36:32.458Z,0.70
2022-08-24T13:39:18.747Z,0.67
2022-08-24T13:42:00.085Z,0.60
2022-08-24T13:44:27.315Z,2.80
2022-08-24T13:47:39.294Z,4.40
2022-08-24T13:50:12.845Z,4.37
2022-08-24T13:53:07.526Z,4.67
2022-08-24T13:55:37.287Z,3.87
2022-08-24T13:58:26.986Z,3.97
2022-08-24T14:01:35.193Z,4.10
2022-08-24T14:04:15.394Z,4.50
2022-08-24T14:07:00.351Z,19.53
2022-08-24T14:09:59.498Z,7.23
2022-08-24T14:12:38.683Z,5.63
2022-08-24T14:15:21.960Z,4.47
2022-08-24T14:18:10.159Z,6.10
2022-08-24T14:20:44.229Z,4.90
2022-08-24T14:23:44.274Z,5.67
2022-08-24T14:26:40.386Z,4.60
2022-08-24T14:29:16.343Z,5.00
2022-08-24T14:32:00.233Z,4.50
2022-08-24T14:34:41.899Z,4.60
2022-08-24T14:37:23.910Z,3.80
2022-08-24T14:39:53.695Z,4.53
2022-08-24T14:42:38.050Z,4.27
2022-08-24T14:45:13.015Z,3.50
2022-08-24T14:47:47.599Z,4.37
2022-08-24T14:50:22.342Z,2.97
2022-08-24T14:53:07.951Z,3.73
2022-08-24T14:56:01.670Z,3.43
2022-08-24T14:58:36.983Z,3.70
2022-08-24T15:01:04.451Z,4.53
2022-08-24T15:04:09.474Z,4.90
2022-08-24T15:06:39.693Z,4.30
2022-08-24T15:09:11.479Z,3.63
2022-08-24T15:11:40.889Z,4.40
2022-08-24T15:14:34.412Z,3.63
2022-08-24T15:17:11.922Z,4.13
2022-08-24T15:19:41.940Z,3.97
2022-08-24T15:22:21.834Z,4.10
2022-08-24T15:25:05.039Z,3.30
2022-08-24T15:27:45.663Z,4.40
2022-08-24T15:30:29.698Z,3.97
2022-08-24T15:33:18.438Z,3.90
2022-08-24T15:35:49.813Z,3.77
2022-08-24T15:38:29.194Z,3.43
2022-08-24T15:41:19.741Z,3.90
2022-08-24T15:43:46.647Z,8.47
2022-08-24T15:46:18.160Z,4.17
2022-08-24T15:48:48.104Z,4.23
2022-08-24T15:51:53.363Z,4.43
2022-08-24T15:54:24.740Z,3.50
2022-08-24T15:56:56.044Z,4.40
2022-08-24T15:59:45.776Z,4.27
2022-08-24T16:02:30.816Z,4.20
2022-08-24T16:05:10.626Z,3.57
2022-08-24T16:08:02.644Z,3.37
2022-08-24T16:10:46.774Z,8.07
2022-08-24T16:13:23.520Z,4.53
2022-08-24T16:15:57.335Z,4.13
2022-08-24T16:18:35.206Z,4.63
2022-08-24T16:21:14.630Z,5.30
2022-08-24T16:23:46.213Z,3.77
2022-08-24T16:26:27.006Z,4.63
2022-08-24T16:28:55.802Z,4.87
2022-08-24T16:31:44.245Z,4.47
2022-08-24T16:34:27.754Z,5.23
2022-08-24T16:36:55.521Z,4.90
2022-08-24T16:39:22.511Z,5.67
2022-08-24T16:41:51.707Z,5.63
2022-08-24T16:44:18.893Z,5.97
2022-08-24T16:46:48.164Z,5.77
2022-08-24T16:49:15.285Z,8.50
2022-08-24T16:51:45.251Z,6.87
2022-08-24T16:54:12.879Z,6.73
2022-08-24T16:56:39.917Z,6.97
2022-08-24T16:59:07.046Z,6.40
2022-08-24T17:01:34.056Z,6.37
2022-08-24T17:04:00.943Z,6.07
2022-08-24T17:06:27.937Z,5.07
2022-08-24T17:08:54.854Z,4.87
2022-08-24T17:11:21.674Z,4.23
2022-08-24T17:13:50.272Z,4.80
2022-08-24T17:16:18.839Z,4.20
2022-08-24T17:18:45.814Z,4.40
2022-08-24T17:21:13.206Z,4.37
2022-08-24T17:23:41.604Z,3.70
2022-08-24T17:26:20.991Z,3.90
2022-08-24T17:28:52.652Z,2.93
2022-08-24T17:31:19.618Z,2.93
2022-08-24T17:33:46.976Z,2.60
2022-08-24T17:36:16.083Z,2.53
2022-08-24T17:38:46.310Z,2.93
2022-08-24T17:41:18.119Z,3.30
2022-08-24T17:43:46.056Z,2.90
2022-08-24T17:46:15.095Z,3.90
2022-08-24T17:48:47.493Z,2.60
2022-08-24T17:51:15.281Z,2.60
2022-08-24T17:53:42.818Z,2.10
2022-08-24T17:56:13.128Z,2.70
2022-08-24T17:58:59.697Z,2.57
2022-08-24T18:01:27.477Z,2.80
2022-08-24T18:03:54.829Z,2.97
2022-08-24T18:06:23.949Z,2.27
2022-08-24T18:08:52.150Z,2.50
2022-08-24T18:11:21.603Z,2.67
2022-08-24T18:13:50.780Z,3.30
2022-08-24T18:16:21.127Z,3.23
2022-08-24T18:18:50.997Z,2.50
2022-08-24T18:21:20.168Z,2.83
2022-08-24T18:23:51.346Z,3.43
2022-08-24T18:26:25.928Z,4.33
2022-08-24T18:28:57.544Z,3.60
2022-08-24T18:31:26.965Z,4.07
2022-08-24T18:33:54.629Z,3.40
2022-08-24T18:36:21.960Z,3.90
2022-08-24T18:38:48.916Z,3.97
2022-08-24T18:41:17.128Z,3.40
2022-08-24T18:43:44.508Z,4.13
2022-08-24T18:46:11.658Z,3.90
2022-08-24T18:48:38.546Z,3.90
2022-08-24T18:51:05.831Z,4.33
2022-08-24T18:53:35.601Z,4.93
2022-08-24T18:56:08.201Z,4.60
2022-08-24T18:58:39.764Z,4.50
2022-08-24T19:01:07.192Z,4.90
2022-08-24T19:03:34.657Z,4.70
2022-08-24T19:06:01.589Z,4.73
2022-08-24T19:08:28.505Z,4.77
2022-08-24T19:10:56.272Z,5.40
2022-08-24T19:13:23.448Z,5.20
2022-08-24T19:15:51.267Z,5.17
2022-08-24T19:18:21.352Z,4.80
2022-08-24T19:20:50.979Z,5.63
2022-08-24T19:23:39.161Z,5.80
2022-08-24T19:26:06.427Z,5.33
2022-08-24T19:28:33.853Z,5.23
2022-08-24T19:31:03.123Z,5.93
2022-08-24T19:33:36.049Z,5.37
2022-08-24T19:36:03.213Z,5.77
2022-08-24T19:38:30.839Z,5.33
2022-08-24T19:40:58.429Z,5.90
2022-08-24T19:43:27.332Z,6.10
2022-08-24T19:46:08.684Z,5.63
2022-08-24T19:48:39.703Z,6.30
2022-08-24T19:51:12.891Z,6.00
2022-08-24T19:53:42.998Z,6.27
2022-08-24T19:56:11.188Z,6.37
2022-08-24T19:58:49.976Z,6.50
2022-08-24T20:01:22.393Z,6.60
2022-08-24T20:03:49.988Z,9.23
2022-08-24T20:06:18.269Z,7.37
2022-08-24T20:08:48.298Z,6.93
2022-08-24T20:11:16.077Z,7.47
2022-08-24T20:13:43.641Z,7.83
2022-08-24T20:16:14.178Z,8.60
2022-08-24T20:18:41.749Z,7.47
2022-08-24T20:21:08.942Z,8.17
2022-08-24T20:23:36.476Z,8.50
2022-08-24T20:26:06.254Z,8.43
2022-08-24T20:28:38.391Z,8.47
2022-08-24T20:31:06.569Z,8.57
2022-08-24T20:33:33.934Z,8.43
2022-08-24T20:36:01.129Z,8.17
2022-08-24T20:38:29.429Z,8.83
2022-08-24T20:40:59.902Z,8.57
2022-08-24T20:43:28.055Z,7.97
2022-08-24T20:45:56.076Z,7.30
2022-08-24T20:48:30.361Z,7.83
2022-08-24T20:50:57.423Z,8.33
2022-08-24T20:53:24.588Z,8.00
2022-08-24T20:55:51.607Z,7.97
2022-08-24T20:58:21.486Z,7.63
2022-08-24T21:00:48.879Z,8.83
2022-08-24T21:03:16.282Z,7.47
2022-08-24T21:05:44.232Z,7.53
2022-08-24T21:08:14.731Z,8.33
2022-08-24T21:10:42.742Z,9.17
2022-08-24T21:13:09.758Z,9.33
2022-08-24T21:15:40.323Z,9.43
2022-08-24T21:18:07.581Z,11.60
2022-08-24T21:20:35.973Z,12.53
2022-08-24T21:23:04.635Z,11.03
2022-08-24T21:25:32.049Z,29.73
2022-08-24T21:28:01.603Z,13.17
2022-08-24T21:30:29.091Z,11.40
2022-08-24T21:33:18.020Z,11.27
2022-08-24T21:35:48.143Z,11.47
2022-08-24T21:38:16.129Z,12.00
2022-08-24T21:40:45.013Z,13.63
2022-08-24T21:43:17.907Z,12.83
2022-08-24T21:45:44.958Z,13.03
2022-08-24T21:48:13.015Z,12.67
2022-08-24T21:50:39.960Z,13.73
2022-08-24T21:53:07.186Z,12.20
2022-08-24T21:55:35.605Z,14.53
2022-08-24T21:58:02.975Z,13.67
2022-08-24T22:00:29.976Z,13.53
2022-08-24T22:02:56.839Z,13.73
2022-08-24T22:05:23.743Z,19.63
2022-08-24T22:07:50.758Z,15.60
2022-08-24T22:10:17.805Z,16.80
2022-08-24T22:12:45.205Z,13.33
2022-08-24T22:15:15.830Z,13.53
2022-08-24T22:17:44.173Z,13.87
2022-08-24T22:20:23.106Z,13.80
2022-08-24T22:22:51.223Z,13.53
2022-08-24T22:25:18.326Z,14.20
2022-08-24T22:27:46.167Z,13.23
2022-08-24T22:30:15.687Z,14.17
2022-08-24T22:32:42.993Z,13.63
2022-08-24T22:35:10.250Z,14.30
2022-08-24T22:37:37.108Z,14.50
2022-08-24T22:40:05.948Z,14.10
2022-08-24T22:42:40.156Z,14.50
2022-08-24T22:45:09.675Z,14.33
2022-08-24T22:47:37.289Z,14.90
2022-08-24T22:50:05.713Z,13.77
2022-08-24T22:52:32.802Z,13.83
2022-08-24T22:54:59.613Z,13.67
2022-08-24T22:57:26.864Z,14.47
2022-08-24T22:59:55.035Z,13.53
2022-08-24T23:02:22.277Z,13.13
2022-08-24T23:04:51.512Z,13.63
2022-08-24T23:07:19.380Z,12.80
2022-08-24T23:09:47.354Z,12.57
2022-08-24T23:12:18.487Z,12.53
2022-08-24T23:14:45.772Z,12.97
2022-08-24T23:17:12.886Z,12.43
2022-08-24T23:19:58.679Z,12.97
2022-08-24T23:22:26.678Z,11.40
2022-08-24T23:24:54.020Z,11.37
2022-08-24T23:27:21.373Z,12.23
2022-08-24T23:29:49.430Z,12.10
2022-08-24T23:32:18.369Z,12.43
2022-08-24T23:34:48.732Z,11.67
2022-08-24T23:37:17.397Z,11.83
2022-08-24T23:39:44.893Z,12.23
2022-08-24T23:42:12.000Z,12.30
2022-08-24T23:44:39.424Z,11.67
2022-08-24T23:47:07.045Z,11.90
2022-08-24T23:49:34.733Z,11.43
2022-08-24T23:52:01.922Z,11.07
2022-08-24T23:54:28.826Z,11.57
2022-08-24T23:56:56.588Z,11.40
2022-08-24T23:59:26.704Z,11.90
